Eglin, Florida
Current Conditions -  °F | °C
As of 7:55 PM on Thursday 20 Nov 2014 (Local Time) from KVPS Reporting Station
Clear Clear  
Wind Chill: 47°   Ceiling: Unl
Heat Index: 47°   Visibility: 10mi
Dew Point: 44°   Wind: 3mph
Humidity: 87%   Direction: 30°NNE
Pressure: 30.25"   Gusts: NA
Location:  30.5697°N, 86.6042°W
Report Text: KVPS 210155Z 03003KT 10SM CLR 08/06 A3025 RMK AO2A SLP250 T00840064 $
Loading
Personal Weather Stations






























Interactive Weather Map New forecast layout! Learn more

10-Day Weather Forecast

Advertisements
Track Severe Weather on mobile